createdAt,value
2023-05-06T00:04:44.457Z,100273.22
2023-05-06T00:09:48.344Z,100266.41
2023-05-06T00:14:51.876Z,100271.72
2023-05-06T00:19:56.192Z,100276.88
2023-05-06T00:24:59.358Z,100278.38
2023-05-06T00:30:02.323Z,100276.72
2023-05-06T00:35:06.547Z,100271.53
2023-05-06T00:40:10.846Z,100278.03
2023-05-06T00:45:13.840Z,100273.22
2023-05-06T00:50:17.329Z,100268.59
2023-05-06T00:55:21.461Z,100264.13
2023-05-06T01:00:24.510Z,100267.63
2023-05-06T01:05:52.444Z,100266.47
2023-05-06T01:11:15.909Z,100263.81
2023-05-06T01:16:23.454Z,100261.81
2023-05-06T01:21:34.922Z,100254.03
2023-05-06T01:26:38.294Z,100253.88
2023-05-06T01:31:50.232Z,100261.50
2023-05-06T01:37:21.270Z,100256.19
2023-05-06T01:42:26.063Z,100250.72
2023-05-06T01:47:29.140Z,100247.91
2023-05-06T01:52:31.990Z,100240.25
2023-05-06T01:57:35.265Z,100243.09
2023-05-06T02:02:38.512Z,100251.53
2023-05-06T02:07:41.642Z,100253.03
2023-05-06T02:12:44.465Z,100246.06
2023-05-06T02:17:47.917Z,100248.69
2023-05-06T02:22:51.043Z,100254.63
2023-05-06T02:27:53.962Z,100254.78
2023-05-06T02:32:57.830Z,100257.28
2023-05-06T02:38:01.562Z,100255.63
2023-05-06T02:43:04.681Z,100259.75
2023-05-06T02:48:07.675Z,100260.44
2023-05-06T02:53:13.162Z,100265.25
2023-05-06T02:58:16.173Z,100271.06
2023-05-06T03:03:19.108Z,100265.94
2023-05-06T03:08:22.268Z,100263.28
2023-05-06T03:13:25.107Z,100253.31
2023-05-06T03:18:28.048Z,100262.75
2023-05-06T03:23:31.198Z,100256.44
2023-05-06T03:28:34.338Z,100254.09
2023-05-06T03:33:37.343Z,100240.81
2023-05-06T03:38:41.634Z,100235.50
2023-05-06T03:43:44.716Z,100240.13
2023-05-06T03:48:47.849Z,100244.13
2023-05-06T03:53:52.346Z,100261.53
2023-05-06T03:58:57.133Z,100258.69
2023-05-06T04:04:00.338Z,100266.88
2023-05-06T04:09:06.418Z,100277.50
2023-05-06T04:14:09.422Z,100265.91
2023-05-06T04:19:13.012Z,100281.38
2023-05-06T04:24:18.705Z,100270.78
2023-05-06T04:29:21.717Z,100269.31
2023-05-06T04:34:25.268Z,100271.47
2023-05-06T04:39:28.546Z,100256.50
2023-05-06T04:44:34.078Z,100268.94
2023-05-06T04:49:37.026Z,100273.84
2023-05-06T04:54:39.932Z,100283.56
2023-05-06T04:59:42.881Z,100294.13
2023-05-06T05:04:45.717Z,100296.91
2023-05-06T05:09:49.395Z,100298.19
2023-05-06T05:14:52.568Z,100295.94
2023-05-06T05:19:55.501Z,100303.53
2023-05-06T05:24:58.574Z,100296.66
2023-05-06T05:30:01.591Z,100294.56
2023-05-06T05:35:06.132Z,100295.66
2023-05-06T05:40:10.076Z,100289.63
2023-05-06T05:45:12.892Z,100288.38
2023-05-06T05:50:15.810Z,100286.97
2023-05-06T05:55:18.650Z,100288.16
2023-05-06T06:00:21.665Z,100284.53
2023-05-06T06:05:24.616Z,100282.16
2023-05-06T06:10:27.679Z,100288.09
2023-05-06T06:15:31.834Z,100278.06
2023-05-06T06:20:36.152Z,100277.28
2023-05-06T06:25:39.062Z,100275.91
2023-05-06T06:30:42.018Z,100280.97
2023-05-06T06:35:45.024Z,100269.13
2023-05-06T06:40:47.972Z,100277.31
2023-05-06T06:45:51.400Z,100274.53
2023-05-06T06:50:54.420Z,100270.22
2023-05-06T06:55:57.242Z,100267.34
2023-05-06T07:01:00.387Z,100269.66
2023-05-06T07:06:03.605Z,100269.22
2023-05-06T07:11:06.695Z,100260.81
2023-05-06T07:16:09.904Z,100263.69
2023-05-06T07:21:12.827Z,100255.38
2023-05-06T07:26:15.864Z,100266.88
2023-05-06T07:31:21.202Z,100259.38
2023-05-06T07:36:24.737Z,100254.56
2023-05-06T07:41:28.199Z,100264.19
2023-05-06T07:46:31.412Z,100250.81
2023-05-06T07:51:34.294Z,100255.06
2023-05-06T07:56:37.479Z,100246.88
2023-05-06T08:01:40.851Z,100251.53
2023-05-06T08:06:43.942Z,100260.25
2023-05-06T08:11:47.063Z,100247.25
2023-05-06T08:16:51.018Z,100262.91
2023-05-06T08:21:55.632Z,100251.31
2023-05-06T08:26:58.567Z,100249.53
2023-05-06T08:32:01.768Z,100257.78
2023-05-06T08:37:04.658Z,100262.34
2023-05-06T08:42:12.055Z,100250.22
2023-05-06T08:47:15.133Z,100242.59
2023-05-06T08:52:19.980Z,100236.38
2023-05-06T08:57:22.999Z,100229.91
2023-05-06T09:02:26.805Z,100238.97
2023-05-06T09:07:30.100Z,100228.03
2023-05-06T09:12:38.105Z,100225.31
2023-05-06T09:17:41.205Z,100213.56
2023-05-06T09:22:44.407Z,100209.53
2023-05-06T09:27:47.382Z,100208.06
2023-05-06T09:32:53.188Z,100204.59
2023-05-06T09:37:56.820Z,100190.72
2023-05-06T09:43:03.593Z,100187.59
2023-05-06T09:48:08.404Z,100179.00
2023-05-06T09:53:13.362Z,100174.00
2023-05-06T09:58:17.625Z,100172.66
2023-05-06T10:03:22.591Z,100160.25
2023-05-06T10:08:26.466Z,100156.97
2023-05-06T10:13:31.394Z,100144.06
2023-05-06T10:18:37.151Z,100151.59
2023-05-06T10:24:11.460Z,100139.78
2023-05-06T10:29:15.095Z,100139.88
2023-05-06T10:34:21.631Z,100126.22
2023-05-06T10:39:25.334Z,100132.53
2023-05-06T10:44:58.348Z,100123.88
2023-05-06T10:50:33.744Z,100116.78
2023-05-06T10:55:40.243Z,100108.56
2023-05-06T11:00:57.110Z,100105.03
2023-05-06T11:06:00.537Z,100102.44
2023-05-06T11:11:48.059Z,100101.63
2023-05-06T11:16:52.727Z,100091.88
2023-05-06T11:21:58.531Z,100095.44
2023-05-06T11:27:01.792Z,100094.72
2023-05-06T11:32:21.540Z,100094.84
2023-05-06T11:37:27.143Z,100096.97
2023-05-06T11:42:30.010Z,100093.22
2023-05-06T11:47:33.015Z,100095.28
2023-05-06T11:52:36.212Z,100097.03
2023-05-06T11:57:44.707Z,100099.97
2023-05-06T12:02:47.588Z,100101.78
2023-05-06T12:07:51.346Z,100099.34
2023-05-06T12:12:54.986Z,100105.56
2023-05-06T12:17:58.169Z,100100.53
2023-05-06T12:23:15.706Z,100100.53
2023-05-06T12:28:26.967Z,100095.13
2023-05-06T12:33:45.755Z,100106.03
2023-05-06T12:38:57.558Z,100093.16
2023-05-06T12:44:00.685Z,100090.53
2023-05-06T12:49:03.873Z,100101.03
2023-05-06T12:54:30.960Z,100098.16
2023-05-06T12:59:36.372Z,100097.78
2023-05-06T13:04:39.429Z,100102.34
2023-05-06T13:09:44.940Z,100095.69
2023-05-06T13:14:47.864Z,100099.94
2023-05-06T13:19:51.182Z,100098.97
2023-05-06T13:24:54.219Z,100093.59
2023-05-06T13:29:57.456Z,100104.66
2023-05-06T13:35:00.669Z,100118.97
2023-05-06T13:40:05.045Z,100119.81
2023-05-06T13:45:09.133Z,100123.44
2023-05-06T13:50:12.306Z,100132.00
2023-05-06T13:55:16.905Z,100113.72
2023-05-06T14:00:22.029Z,100123.88
2023-05-06T14:05:25.294Z,100120.91
2023-05-06T14:10:28.309Z,100128.56
2023-05-06T14:15:31.342Z,100113.19
2023-05-06T14:20:34.283Z,100120.16
2023-05-06T14:25:37.352Z,100111.56
2023-05-06T14:30:41.128Z,100120.69
2023-05-06T14:35:46.307Z,100116.78
2023-05-06T14:40:50.910Z,100103.16
2023-05-06T14:45:54.372Z,100099.63
2023-05-06T14:50:57.512Z,100092.19
2023-05-06T14:56:00.874Z,100089.06
2023-05-06T15:01:04.020Z,100077.91
2023-05-06T15:06:06.969Z,100074.56
2023-05-06T15:11:10.100Z,100066.81
2023-05-06T15:16:13.024Z,100065.75
2023-05-06T15:21:17.492Z,100059.81
2023-05-06T15:26:21.603Z,100047.78
2023-05-06T15:31:24.640Z,100045.09
2023-05-06T15:36:27.858Z,100036.97
2023-05-06T15:41:36.359Z,100036.25
2023-05-06T15:46:39.848Z,100039.91
2023-05-06T15:51:42.847Z,100040.09
2023-05-06T15:56:46.668Z,100037.47
2023-05-06T16:06:56.254Z,100045.78
2023-05-06T16:11:59.184Z,100035.00
2023-05-06T16:17:02.252Z,100033.09
2023-05-06T16:22:05.194Z,100032.19
2023-05-06T16:27:08.430Z,100049.59
2023-05-06T16:32:11.918Z,100044.53
2023-05-06T16:37:15.727Z,100058.31
2023-05-06T16:42:18.616Z,100070.78
2023-05-06T16:47:24.165Z,100059.59
2023-05-06T16:52:28.998Z,100050.13
2023-05-06T16:57:33.796Z,100060.31
2023-05-06T17:02:37.847Z,100055.72
2023-05-06T17:07:41.138Z,100067.34
2023-05-06T17:12:44.223Z,100062.56
2023-05-06T17:17:47.545Z,100048.03
2023-05-06T17:22:50.907Z,100052.47
2023-05-06T17:27:54.038Z,100050.56
2023-05-06T17:32:57.172Z,100043.25
2023-05-06T17:38:00.545Z,100034.63
2023-05-06T17:43:03.683Z,100036.66
2023-05-06T17:48:06.877Z,100038.00
2023-05-06T17:53:10.057Z,100047.38
2023-05-06T17:58:13.176Z,100053.25
2023-05-06T18:03:16.501Z,100049.19
2023-05-06T18:08:19.844Z,100050.31
2023-05-06T18:13:23.664Z,100058.25
2023-05-06T18:18:26.767Z,100073.44
2023-05-06T18:23:30.033Z,100076.63
2023-05-06T18:28:40.154Z,100071.72
2023-05-06T18:33:43.436Z,100063.91
2023-05-06T18:38:46.548Z,100065.00
2023-05-06T18:43:49.544Z,100066.69
2023-05-06T18:48:52.469Z,100066.72
2023-05-06T18:53:55.729Z,100067.19
2023-05-06T18:58:59.707Z,100075.69
2023-05-06T19:04:02.704Z,100074.63
2023-05-06T19:09:10.188Z,100086.63
2023-05-06T19:14:13.372Z,100093.19
2023-05-06T19:19:16.429Z,100093.63
2023-05-06T19:24:19.483Z,100101.25
2023-05-06T19:29:22.283Z,100105.41
2023-05-06T19:34:25.761Z,100106.25
2023-05-06T19:39:28.690Z,100109.75
2023-05-06T19:44:31.876Z,100110.97
2023-05-06T19:49:34.878Z,100113.03
2023-05-06T19:54:37.928Z,100126.69
2023-05-06T19:59:41.014Z,100129.56
2023-05-06T20:04:44.195Z,100134.53
2023-05-06T20:09:47.098Z,100139.47
2023-05-06T20:14:50.031Z,100152.66
2023-05-06T20:19:53.474Z,100154.06
2023-05-06T20:25:13.070Z,100143.16
2023-05-06T20:30:16.436Z,100131.59
2023-05-06T20:35:19.989Z,100134.50
2023-05-06T20:40:23.085Z,100128.31
2023-05-06T20:45:26.185Z,100110.59
2023-05-06T20:50:30.998Z,100115.13
2023-05-06T20:55:34.251Z,100107.25
2023-05-06T21:00:37.184Z,100091.81
2023-05-06T21:05:40.212Z,100093.84
2023-05-06T21:10:44.313Z,100105.38
2023-05-06T21:15:47.051Z,100096.97
2023-05-06T21:20:49.999Z,100090.34
2023-05-06T21:25:53.017Z,100089.88
2023-05-06T21:30:56.075Z,100097.28
2023-05-06T21:35:58.911Z,100097.03
2023-05-06T21:41:01.865Z,100090.59
2023-05-06T21:46:04.808Z,100097.13
2023-05-06T21:51:07.816Z,100094.22
2023-05-06T21:56:11.015Z,100090.28
2023-05-06T22:01:14.478Z,100096.56
2023-05-06T22:06:17.585Z,100100.22
2023-05-06T22:11:22.680Z,100096.50
2023-05-06T22:16:25.800Z,100098.34
2023-05-06T22:21:31.751Z,100099.94
2023-05-06T22:26:34.885Z,100107.97
2023-05-06T22:31:38.028Z,100108.34
2023-05-06T22:36:41.504Z,100091.31
2023-05-06T22:41:44.797Z,100084.09
2023-05-06T22:46:47.862Z,100089.25
2023-05-06T22:51:50.682Z,100095.03
2023-05-06T22:56:53.684Z,100098.09
2023-05-06T23:01:56.832Z,100104.25
2023-05-06T23:06:59.744Z,100104.25
2023-05-06T23:12:02.895Z,100100.97
2023-05-06T23:17:07.169Z,100096.25
2023-05-06T23:22:10.315Z,100099.75
2023-05-06T23:27:13.147Z,100100.53
2023-05-06T23:32:16.753Z,100107.44
2023-05-06T23:37:19.753Z,100094.81
2023-05-06T23:42:22.863Z,100101.72
2023-05-06T23:47:26.691Z,100107.41
2023-05-06T23:52:29.756Z,100106.97
2023-05-06T23:57:32.812Z,100106.06
